• Join FlightAware (Why Join?)
  • Login
  • US Flag 
11:56PM EDT


 

Airport Tracker/Info


-or-


 

Live Flight TrackerFlight Track Log ✈ EGF3678 ✈ 01-Jul-2013 ✈ KORD - KEWR

Flight Track Log - Related Links

Times and Time Zones

All times are in EDT time to prevent confusion due to time zone crossing. See the EGF3678 flight status page for this flight to view local times or setup timezone preferences in your user account.

Time Position Orientation Groundspeed Altitude Reporting Facility
EDT Latitude Longitude Course Direction KTS MPH feet Rate Location/Type
12:09PM 42.0000 -87.8500 77° East 171 197 2,500  Level Chicago TRACON
12:10PM 42.0122 -87.7975 73° East 190 219 3,700 1,800 Climbing Chicago Center
12:11PM 42.0387 -87.4459 79° East  Level FlightAware Approximate
12:11PM 42.0192 -87.7028 84° East 232 267 5,800  Level Chicago Center
12:12PM 42.0615 -87.2921 78° East  Level FlightAware Approximate
12:12PM 42.0328 -87.6089 79° East 254 292 8,900  Level Chicago Center
12:13PM 42.0853 -87.1385 77° East  Level FlightAware Approximate
12:14PM 42.1081 -86.9850 77° East  Level FlightAware Approximate
12:14PM 42.0505 -87.3635 78° East  Level FlightAware Approximate
12:14PM 42.0656 -87.3831 78° East 291 335 13,400  Level Chicago Center
12:15PM 42.0836 -87.2622 79° East 323 372 15,300 1,680 Climbing Chicago Center
12:16PM 42.1014 -87.1367 79° East 340 391 16,900 1,680 Climbing Chicago Center
12:17PM 42.1156 -87.0058 82° East 350 403 18,800 1,740 Climbing Chicago Center
12:18PM 42.1192 -86.8714 88° East 359 413 20,600 1,320 Climbing Chicago Center
12:20PM 42.1173 -86.6515 91° East  Level FlightAware Approximate
12:21PM 42.1339 -86.4311 90° East 394 453 24,300  Level Chicago Center
12:22PM 42.1400 -86.2492 87° East 405 466 25,600 1,260 Climbing Chicago Center
12:23PM 42.1444 -86.0975 88° East 407 468 27,000 960 Climbing Chicago Center
12:24PM 42.1428 -85.9533 91° East 414 476 27,700 540 Climbing Chicago Center
12:25PM 42.1408 -85.7928 91° East 429 494 28,200 480 Climbing Chicago Center
12:26PM 42.1397 -85.5925 90° East 448 516 28,800 480 Climbing Chicago Center
12:27PM 42.1334 -85.6034 90° East  Level FlightAware Approximate
12:27PM 42.1372 -85.4194 91° East 461 531 29,300  Level Chicago Center
12:28PM 42.1361 -85.2442 90° East 469 540 30,200 900 Climbing Chicago Center
12:29PM 42.1344 -85.0675 91° East 473 544 31,200 1,260 Climbing Chicago Center
12:30PM 42.1322 -84.8981 91° East 459 528 32,900 1,920 Climbing Chicago Center
12:31PM 42.1294 -84.7106 91° East 431 496 35,200 1,440 Climbing Chicago Center
12:33PM 42.1203 -84.5625 95° East 408 470 35,900 360 Climbing Chicago Center
12:34PM 42.1056 -84.3197 95° East 401 461 36,300 300 Climbing Cleveland Center
12:35PM 42.0900 -84.1508 97° East 411 473 36,800 300 Climbing Cleveland Center
12:36PM 42.0781 -83.9936 96° East 411 473 37,000 60 Climbing Cleveland Center
12:37PM 42.0661 -83.8306 96° East 423 487 37,000  Level Cleveland Center
12:39PM 42.0531 -83.5761 94° East 455 524 37,000  Level Chicago Center
12:40PM 42.0408 -83.4031 95° East 465 535 37,000  Level Chicago Center
12:41PM 42.0167 -83.1517 97° East 478 550 37,000  Level Cleveland Center
12:42PM 42.0058 -82.9753 95° East 483 556 37,000  Level Cleveland Center
12:43PM 41.9928 -82.7986 96° East 483 556 37,000  Level Cleveland Center
12:44PM 41.9772 -82.6250 97° East 483 556 37,000  Level Cleveland Center
12:45PM 41.9656 -82.4486 95° East 477 549 37,000  Level Cleveland Center
12:47PM 41.9358 -82.2509 96° East  Level FlightAware Approximate
12:47PM 41.9372 -82.1072 96° East 461 531 37,000  Level Cleveland Center
12:48PM 41.9228 -81.9339 96° East 461 531 37,000  Level Cleveland Center
12:50PM 41.9027 -81.7318 98° East  Level FlightAware Approximate
12:50PM 41.8931 -81.5844 98° East 463 533 37,000  Level Cleveland Center
12:51PM 41.8736 -81.3947 98° East 469 540 37,000  Level Cleveland Center
12:53PM 41.8479 -81.1938 97° East  Level FlightAware Approximate
12:53PM 41.8444 -81.0514 97° East 463 533 37,000  Level Cleveland Center
12:54PM 41.8261 -80.8786 98° East 463 533 37,000  Level Cleveland Center
12:55PM 41.8097 -80.7003 97° East 468 539 37,000  Level Cleveland Center
12:56PM 41.7953 -80.5303 96° East 468 539 37,000  Level Cleveland Center
12:57PM 41.7764 -80.3575 98° East 468 539 37,000  Level Cleveland Center
12:58PM 41.7614 -80.1989 97° East 468 539 37,000  Level Cleveland Center
12:59PM 41.7419 -80.0267 99° East 463 533 37,000  Level Cleveland Center
01:00PM 41.7264 -79.8542 97° East 462 532 37,000  Level Cleveland Center
01:01PM 41.7064 -79.6819 99° East 467 537 37,000  Level Cleveland Center
01:02PM 41.6881 -79.4961 97° East 462 532 37,000  Level Cleveland Center
01:05PM 41.6468 -79.1451 99° East  Level FlightAware Approximate
01:05PM 41.6319 -78.9747 99° East 467 537 37,000  Level Cleveland Center
01:06PM 41.6106 -78.8003 99° East 467 537 37,000  Level Cleveland Center
01:07PM 41.5911 -78.6258 98° East 467 537 37,000 -720 Level Cleveland Center
01:09PM 41.5542 -78.3228 99° East 492 566 35,100 -1,500 Descending New York Center
01:10PM 41.5339 -78.1486 99° East 486 559 32,800 -2,040 Descending New York Center
01:11PM 41.5114 -77.9714 100° East 481 554 31,000 -660 Descending New York Center
01:13PM 41.4600 -77.6086 101° East 492 566 31,000  Level New York Center
01:14PM 41.4347 -77.4261 100° East 492 566 31,000 -1,200 Level New York Center
01:16PM 41.3811 -77.0725 101° East 492 566 27,400 -1,800 Descending New York Center
01:18PM 41.3463 -76.8492 102° East  Level FlightAware Approximate
01:18PM 41.3222 -76.7242 102° East 487 560 23,800  Level New York Center
01:19PM 41.2781 -76.5631 110° East 474 545 22,500 -1,380 Descending New York Center
01:20PM 41.2339 -76.3992 110° East 467 537 21,100 -1,560 Descending New York Center
01:21PM 41.1933 -76.2442 109° East 457 526 19,400 -2,040 Descending New York Center
01:23PM 41.1183 -75.9625 109° East 426 490 15,100 -2,160 Descending New York Center
01:24PM 41.0750 -75.8081 110° East 418 481 13,000 -720 Descending New York Center
01:26PM 40.9992 -75.5272 110° East 413 475 13,000 -120 Level New York Center
01:27PM 40.9644 -75.4011 110° East 384 442 12,700 -780 Descending New York Center
01:28PM 40.9278 -75.2781 111° Southeast 367 422 11,500 -1,140 Descending New York Center
01:29PM 40.9000 -75.1800 111° Southeast 332 382 10,500 -1,140 Descending New York Center
01:30PM 40.8683 -75.0792 113° Southeast 308 354 9,300 -1,260 Descending New York Center
01:31PM 40.8000 -75.0722 176° South 209 241 8,100 -660 Descending New York Center
01:32PM 40.7994 -75.1461 269° West 171 197 8,100 -60 Level New York Center
01:33PM 40.8425 -75.2203 308° West 205 236 8,000 -120 Descending New York Center
01:34PM 40.8903 -75.2753 319° Northwest 232 267 7,900 -300 Descending New York Center
01:35PM 40.9322 -75.2122 49° Northeast 177 204 7,500 -420 Descending New York Center
01:36PM 40.8986 -75.1058 113° Southeast 205 236 7,100 -300 Descending New York Center
01:37PM 40.8664 -75.0214 117° Southeast 233 268 7,000  Descending New York Center
01:38PM 40.8378 -74.9483 117° Southeast 239 275 7,100  Climbing New York Center
01:39PM 40.7964 -74.8828 130° Southeast 226 260 7,100 -300 Level New York Center
01:40PM 40.7503 -74.8278 138° Southeast 226 260 6,600 -540 Descending New York Center
01:41PM 40.7019 -74.7758 141° Southeast 226 260 6,100 -300 Descending New York Center
01:42PM 40.7089 -74.6994 83° East 196 226 6,100  Level New York Center
01:43PM 40.7650 -74.6342 41° Northeast 209 241 6,100  Level New York Center
01:44PM 40.8000 -74.5833 48° Northeast 262 302 6,100 -240 Level New York TRACON
01:45PM 40.8833 -74.5667 North 258 297 5,700 -480 Descending New York TRACON
01:46PM 40.9500 -74.5333 21° North 253 291 5,200 -360 Descending New York TRACON
01:47PM 41.0000 -74.5167 14° North 250 288 5,100 -60 Descending New York TRACON
01:48PM 41.0667 -74.4833 21° North 230 265 5,100  Level New York TRACON
01:49PM 41.1333 -74.4500 21° North 236 272 5,100  Level New York TRACON
01:50PM 41.1500 -74.3833 72° East 227 261 5,100  Level New York TRACON
01:51PM 41.1333 -74.3167 108° East 211 243 5,100  Level New York TRACON
01:52PM 41.0833 -74.2667 143° Southeast 204 235 5,100  Level New York TRACON
01:53PM 41.0500 -74.2167 131° Southeast 198 228 5,100 -300 Level New York TRACON
01:54PM 41.0000 -74.1833 153° Southeast 195 224 4,600 -540 Descending New York TRACON
01:55PM 40.9500 -74.1500 153° Southeast 191 220 4,100 -660 Descending New York TRACON
01:56PM 40.9000 -74.1167 153° Southeast 192 221 3,300 -840 Descending New York TRACON